Time;durP1;ratioP1;P1;durP2;ratioP2;P2;SDS_P1;SDS_P2;PMS_P1;PMS_P2;Temp;Humidity;BMP_temperature;BMP_pressure;BME280_temperature;BME280_humidity;BME280_pressure;Samples;Min_cycle;Max_cycle;Signal;HPM_P1;HPM_P2
2021/04/26 00:02:05;;;;;;;;;;;16.30;99.90;;;;;;4997538;28;20272;-68
2021/04/26 00:04:34;;;;;;;;;;;16.30;99.90;;;;;;5014830;28;20384;-68
2021/04/26 00:07:01;;;;;;;;;;;16.30;99.90;;;;;;5015700;28;19917;-69
2021/04/26 00:09:27;;;;;;;;;;;16.40;99.90;;;;;;5017577;28;20012;-69
2021/04/26 00:11:54;;;;;;;;;;;16.50;99.90;;;;;;5017324;28;19987;-69
2021/04/26 00:14:21;;;;;;;;;;;16.60;99.90;;;;;;5019823;28;19997;-69
2021/04/26 00:16:47;;;;;;;;;;;16.50;99.90;;;;;;5014582;28;19909;-69
2021/04/26 00:19:14;;;;;;;;;;;16.60;99.90;;;;;;5014651;28;19976;-69
2021/04/26 00:21:41;;;;;;;;;;;16.70;99.90;;;;;;5014711;28;19949;-69
2021/04/26 00:24:08;;;;;;;;;;;16.80;99.90;;;;;;5013740;28;19909;-68
2021/04/26 00:26:35;;;;;;;;;;;16.90;99.90;;;;;;5014648;28;20331;-69
2021/04/26 00:29:01;;;;;;;;;;;16.90;99.90;;;;;;5014348;28;19937;-70
2021/04/26 00:31:28;;;;;;;;;;;16.90;99.90;;;;;;5014496;28;19913;-68
2021/04/26 00:33:55;;;;;;;;;;;17.00;99.90;;;;;;4996938;28;19913;-69
2021/04/26 00:36:21;;;;;;;;;;;16.90;99.90;;;;;;5014311;28;19909;-71
2021/04/26 00:38:48;;;;;;;;;;;17.10;99.90;;;;;;5013987;28;19910;-68
2021/04/26 00:41:14;;;;;;;;;;;17.10;99.90;;;;;;5014087;28;19979;-70
2021/04/26 00:43:44;;;;;;;;;;;17.10;99.90;;;;;;5014072;28;19910;-69
2021/04/26 00:46:15;;;;;;;;;;;17.10;99.90;;;;;;5014097;28;19909;-68
2021/04/26 00:48:42;;;;;;;;;;;17.20;99.90;;;;;;5014060;28;19916;-69
2021/04/26 00:51:08;;;;;;;;;;;17.20;99.90;;;;;;5013990;28;20012;-70
2021/04/26 00:53:35;;;;;;;;;;;17.20;99.90;;;;;;5014042;28;19909;-69
2021/04/26 00:56:03;;;;;;;;;;;17.30;99.90;;;;;;5013939;28;19949;-68
2021/04/26 00:58:32;;;;;;;;;;;17.40;99.90;;;;;;5014211;28;19909;-68
2021/04/26 01:01:00;;;;;;;;;;;17.50;99.90;;;;;;5013821;28;19916;-68
2021/04/26 01:03:27;;;;;;;;;;;17.50;99.90;;;;;;5013582;28;19910;-69
2021/04/26 01:05:54;;;;;;;;;;;17.60;99.90;;;;;;5012818;28;20005;-68
2021/04/26 01:08:20;;;;;;;;;;;17.90;99.90;;;;;;5013829;28;19909;-69
2021/04/26 01:10:48;;;;;;;;;;;18.50;99.90;;;;;;5013653;28;19917;-68
2021/04/26 01:13:32;;;;;;;;;;;19.10;99.90;;;;;;5013793;28;20307;-69
2021/04/26 01:16:12;;;;;;;;;;;19.30;99.90;;;;;;5013744;28;20442;-68
2021/04/26 01:18:58;;;;;;;;;;;19.40;99.90;;;;;;5013537;28;20367;-69
2021/04/26 01:21:25;;;;;;;;;;;19.70;99.90;;;;;;4973646;28;19964;-68
2021/04/26 01:24:06;;;;;;;;;;;19.70;99.90;;;;;;5013715;28;19909;-68
2021/04/26 01:26:37;;;;;;;;;;;19.70;99.90;;;;;;5013673;28;20411;-68
2021/04/26 01:29:07;;;;;;;;;;;19.40;99.90;;;;;;5013512;28;19955;-68
2021/04/26 01:31:59;;;;;;;;;;;19.10;99.90;;;;;;5013609;28;19925;-68
2021/04/26 01:34:27;;;;;;;;;;;18.90;99.90;;;;;;4995452;28;20048;-68
2021/04/26 01:36:54;;;;;;;;;;;18.80;99.90;;;;;;5013383;28;19956;-70
2021/04/26 01:39:22;;;;;;;;;;;18.70;99.90;;;;;;5013739;28;19914;-68
2021/04/26 01:41:48;;;;;;;;;;;18.80;99.90;;;;;;5015183;28;19923;-68
2021/04/26 01:44:18;;;;;;;;;;;18.80;99.90;;;;;;5016797;28;20004;-68
2021/04/26 01:46:45;;;;;;;;;;;18.90;99.90;;;;;;4999942;28;19972;-70
2021/04/26 01:49:12;;;;;;;;;;;18.90;99.90;;;;;;5013395;28;19909;-69
2021/04/26 01:51:39;;;;;;;;;;;19.00;99.90;;;;;;5013069;28;20124;-69
2021/04/26 01:54:06;;;;;;;;;;;19.00;99.90;;;;;;5013060;28;19914;-70
2021/04/26 01:56:34;;;;;;;;;;;18.90;99.90;;;;;;5013445;28;19909;-69
2021/04/26 01:59:01;;;;;;;;;;;18.80;99.90;;;;;;5013084;28;19949;-68
2021/04/26 02:01:28;;;;;;;;;;;18.70;99.90;;;;;;5013178;28;19910;-68
2021/04/26 02:03:59;;;;;;;;;;;18.80;99.90;;;;;;5012994;28;20363;-69
2021/04/26 02:06:26;;;;;;;;;;;18.80;99.90;;;;;;5013127;28;19910;-69
2021/04/26 02:08:54;;;;;;;;;;;18.70;99.90;;;;;;5012875;28;19909;-69
2021/04/26 02:11:20;;;;;;;;;;;18.60;99.90;;;;;;5012942;28;19914;-68
2021/04/26 02:13:51;;;;;;;;;;;18.60;99.90;;;;;;5013242;28;19913;-69
2021/04/26 02:16:18;;;;;;;;;;;18.60;99.90;;;;;;5013357;28;19917;-68
2021/04/26 02:18:45;;;;;;;;;;;18.60;99.90;;;;;;5012785;28;20390;-68
2021/04/26 02:21:12;;;;;;;;;;;18.70;99.90;;;;;;5012935;28;19920;-68
2021/04/26 02:23:39;;;;;;;;;;;18.80;99.90;;;;;;5013092;28;20004;-68
2021/04/26 02:26:05;;;;;;;;;;;18.90;99.70;;;;;;5012913;28;19964;-68
2021/04/26 02:28:32;;;;;;;;;;;19.00;99.70;;;;;;5013070;28;19932;-68
2021/04/26 02:31:05;;;;;;;;;;;19.00;99.90;;;;;;5012696;28;19913;-68
2021/04/26 02:33:34;;;;;;;;;;;18.90;99.90;;;;;;5012822;28;19963;-69
2021/04/26 02:36:04;;;;;;;;;;;18.80;99.60;;;;;;5013050;28;19917;-69
2021/04/26 02:38:35;;;;;;;;;;;18.80;99.70;;;;;;5012846;28;20292;-68
2021/04/26 02:41:13;;;;;;;;;;;18.70;99.90;;;;;;5013599;28;19929;-68
2021/04/26 02:43:44;;;;;;;;;;;18.70;99.90;;;;;;5012971;28;19910;-68
2021/04/26 02:46:11;;;;;;;;;;;18.70;99.90;;;;;;5012796;28;20299;-68
2021/04/26 02:48:39;;;;;;;;;;;18.60;99.90;;;;;;5016257;28;19910;-71
2021/04/26 02:51:07;;;;;;;;;;;18.60;99.90;;;;;;5015819;28;19913;-72
2021/04/26 02:53:35;;;;;;;;;;;18.80;99.90;;;;;;5016360;28;19920;-71
2021/04/26 02:56:08;;;;;;;;;;;18.80;99.90;;;;;;5016156;28;19997;-71
2021/04/26 02:58:35;;;;;;;;;;;18.90;99.90;;;;;;5016157;28;20012;-69
2021/04/26 03:01:06;;;;;;;;;;;19.00;99.90;;;;;;5015979;28;19916;-71
2021/04/26 03:03:34;;;;;;;;;;;19.10;99.90;;;;;;5016120;28;20006;-72
2021/04/26 03:06:01;;;;;;;;;;;19.00;99.90;;;;;;5016346;28;20361;-72
2021/04/26 03:08:29;;;;;;;;;;;18.90;99.90;;;;;;5016089;28;19979;-71
2021/04/26 03:10:56;;;;;;;;;;;18.90;99.90;;;;;;5015861;28;19917;-72
2021/04/26 03:13:26;;;;;;;;;;;19.10;99.90;;;;;;4998264;28;20331;-68
2021/04/26 03:15:53;;;;;;;;;;;19.20;99.70;;;;;;5015670;28;19910;-69
2021/04/26 03:18:19;;;;;;;;;;;19.30;99.70;;;;;;5015719;28;19909;-69
2021/04/26 03:20:47;;;;;;;;;;;19.30;99.90;;;;;;5015418;28;19910;-69
2021/04/26 03:23:18;;;;;;;;;;;19.30;99.70;;;;;;5015772;28;19917;-69
2021/04/26 03:25:45;;;;;;;;;;;19.30;99.70;;;;;;5016117;28;19992;-71
2021/04/26 03:28:12;;;;;;;;;;;19.30;99.60;;;;;;5017520;28;19910;-72
2021/04/26 03:30:39;;;;;;;;;;;19.30;99.80;;;;;;5017835;28;19910;-69
2021/04/26 03:33:06;;;;;;;;;;;19.30;99.30;;;;;;5017919;28;19914;-71
2021/04/26 03:35:33;;;;;;;;;;;19.50;99.00;;;;;;5015656;28;19916;-69
2021/04/26 03:38:00;;;;;;;;;;;19.40;99.20;;;;;;5015396;28;20403;-70
2021/04/26 03:40:27;;;;;;;;;;;19.30;99.20;;;;;;5015078;28;20391;-71
2021/04/26 03:43:02;;;;;;;;;;;19.50;98.80;;;;;;5015037;28;20356;-69
2021/04/26 03:45:29;;;;;;;;;;;19.60;98.60;;;;;;5015258;28;20039;-68
2021/04/26 03:47:56;;;;;;;;;;;19.60;98.60;;;;;;5015307;28;20348;-68
2021/04/26 03:50:24;;;;;;;;;;;19.40;98.50;;;;;;5015097;28;19909;-69
2021/04/26 03:52:51;;;;;;;;;;;19.40;98.60;;;;;;5014893;28;20430;-70
2021/04/26 03:55:19;;;;;;;;;;;19.30;98.30;;;;;;5015462;28;20299;-68
2021/04/26 03:57:46;;;;;;;;;;;19.20;98.80;;;;;;5014620;28;19917;-69
2021/04/26 04:00:13;;;;;;;;;;;19.30;98.90;;;;;;5015086;28;19909;-69
2021/04/26 04:02:40;;;;;;;;;;;19.20;99.00;;;;;;5014835;28;19909;-70
2021/04/26 04:05:07;;;;;;;;;;;19.30;98.70;;;;;;5014809;28;20443;-70
2021/04/26 04:07:36;;;;;;;;;;;19.20;99.10;;;;;;5015041;28;20316;-70
2021/04/26 04:10:07;;;;;;;;;;;19.20;98.80;;;;;;5014830;28;19957;-69
2021/04/26 04:12:34;;;;;;;;;;;19.30;98.80;;;;;;5014929;28;20364;-69
2021/04/26 04:15:01;;;;;;;;;;;19.40;98.70;;;;;;5014679;28;19992;-69
2021/04/26 04:17:27;;;;;;;;;;;19.40;98.70;;;;;;5014468;28;19910;-69
2021/04/26 04:19:54;;;;;;;;;;;19.40;98.60;;;;;;5014494;28;19909;-69
2021/04/26 04:22:21;;;;;;;;;;;19.40;98.50;;;;;;5014687;28;19916;-72
2021/04/26 04:24:47;;;;;;;;;;;19.40;98.40;;;;;;5014420;28;20379;-71
2021/04/26 04:27:14;;;;;;;;;;;19.40;98.80;;;;;;5014771;28;19992;-72
2021/04/26 04:29:41;;;;;;;;;;;19.40;99.10;;;;;;5014231;28;19914;-70
2021/04/26 04:32:08;;;;;;;;;;;19.50;98.60;;;;;;5014080;28;20356;-68
2021/04/26 04:34:35;;;;;;;;;;;19.50;99.00;;;;;;5014487;28;19910;-68
2021/04/26 04:37:02;;;;;;;;;;;19.40;99.10;;;;;;5014275;28;19941;-71
2021/04/26 04:39:29;;;;;;;;;;;19.50;99.00;;;;;;5014231;28;19976;-71
2021/04/26 04:41:56;;;;;;;;;;;19.40;99.10;;;;;;5014464;28;20004;-69
2021/04/26 04:44:22;;;;;;;;;;;19.30;99.40;;;;;;5014206;28;19910;-69
2021/04/26 04:46:49;;;;;;;;;;;19.30;99.30;;;;;;5013981;28;19910;-71
2021/04/26 04:49:16;;;;;;;;;;;19.30;99.40;;;;;;5014295;28;19980;-69
2021/04/26 04:51:44;;;;;;;;;;;19.20;99.70;;;;;;5014077;28;19925;-69
2021/04/26 04:54:11;;;;;;;;;;;19.30;99.90;;;;;;5013953;28;19916;-69
2021/04/26 04:56:38;;;;;;;;;;;19.30;99.60;;;;;;5014190;28;19964;-68
2021/04/26 04:59:06;;;;;;;;;;;19.30;99.90;;;;;;5015518;28;20004;-69
2021/04/26 05:01:33;;;;;;;;;;;19.30;99.90;;;;;;5015484;28;20004;-69
2021/04/26 05:03:59;;;;;;;;;;;19.20;99.90;;;;;;5015817;28;19910;-72
2021/04/26 05:06:26;;;;;;;;;;;19.20;99.90;;;;;;5013735;28;20013;-71
2021/04/26 05:08:53;;;;;;;;;;;19.10;99.90;;;;;;5013442;28;19909;-69
2021/04/26 05:11:20;;;;;;;;;;;19.20;99.90;;;;;;5013458;28;20419;-68
2021/04/26 05:13:46;;;;;;;;;;;19.10;99.90;;;;;;5013862;28;19911;-69
2021/04/26 05:16:13;;;;;;;;;;;19.10;99.90;;;;;;5013487;28;19963;-69
2021/04/26 05:18:40;;;;;;;;;;;19.10;99.90;;;;;;5013716;28;19953;-71
2021/04/26 05:21:06;;;;;;;;;;;19.10;99.90;;;;;;5013262;28;20004;-69
2021/04/26 05:23:33;;;;;;;;;;;19.10;99.90;;;;;;5013749;28;20417;-70
2021/04/26 05:26:00;;;;;;;;;;;19.00;99.90;;;;;;5013425;28;20253;-68
2021/04/26 05:28:27;;;;;;;;;;;19.10;99.90;;;;;;5013468;28;19914;-69
2021/04/26 05:30:56;;;;;;;;;;;19.10;99.90;;;;;;5013153;28;19941;-71
2021/04/26 05:33:23;;;;;;;;;;;19.10;99.90;;;;;;5013407;28;19932;-71
2021/04/26 05:35:50;;;;;;;;;;;19.10;99.90;;;;;;5013379;28;19920;-71
2021/04/26 05:38:17;;;;;;;;;;;19.00;99.90;;;;;;5013070;28;19916;-68
2021/04/26 05:40:47;;;;;;;;;;;19.10;99.90;;;;;;5013122;28;19922;-70
2021/04/26 05:43:14;;;;;;;;;;;19.00;99.90;;;;;;5013480;28;20008;-71
2021/04/26 05:45:42;;;;;;;;;;;19.00;99.90;;;;;;5013395;28;19910;-69
2021/04/26 05:48:09;;;;;;;;;;;18.90;99.90;;;;;;4995648;28;19913;-69
2021/04/26 05:50:37;;;;;;;;;;;18.90;99.90;;;;;;5013427;28;19920;-70
2021/04/26 05:53:03;;;;;;;;;;;18.80;99.90;;;;;;5013191;28;19921;-70
2021/04/26 05:55:30;;;;;;;;;;;18.80;99.90;;;;;;5013163;28;19916;-70
2021/04/26 05:57:57;;;;;;;;;;;18.80;99.90;;;;;;5013497;28;19980;-71
2021/04/26 06:00:24;;;;;;;;;;;18.80;99.90;;;;;;5013290;28;19964;-70
2021/04/26 06:02:51;;;;;;;;;;;18.70;99.90;;;;;;5013090;28;19914;-69
2021/04/26 06:05:17;;;;;;;;;;;18.80;99.90;;;;;;5013200;28;20363;-69
2021/04/26 06:07:45;;;;;;;;;;;18.70;99.90;;;;;;5013084;28;20129;-69
2021/04/26 06:10:15;;;;;;;;;;;18.70;99.90;;;;;;5012951;28;19916;-70
2021/04/26 06:12:42;;;;;;;;;;;18.70;99.90;;;;;;5013105;28;19917;-72
2021/04/26 06:15:09;;;;;;;;;;;18.70;99.90;;;;;;4979360;28;19991;-72
2021/04/26 06:17:36;;;;;;;;;;;18.60;99.90;;;;;;5012955;28;20356;-72
2021/04/26 06:20:04;;;;;;;;;;;18.60;99.90;;;;;;5012561;28;19995;-70
2021/04/26 06:22:31;;;;;;;;;;;18.60;99.90;;;;;;5016578;28;19909;-70
2021/04/26 06:24:58;;;;;;;;;;;18.50;99.90;;;;;;5016591;28;20024;-70
2021/04/26 06:27:25;;;;;;;;;;;18.60;99.90;;;;;;5016702;28;19913;-69
2021/04/26 06:29:51;;;;;;;;;;;18.50;99.90;;;;;;5018052;28;19957;-71
2021/04/26 06:32:18;;;;;;;;;;;18.50;99.90;;;;;;5020387;28;19969;-70
2021/04/26 06:34:45;;;;;;;;;;;18.50;99.90;;;;;;5026659;28;20012;-72
2021/04/26 06:37:12;;;;;;;;;;;18.50;99.90;;;;;;5020095;28;19909;-70
2021/04/26 06:39:39;;;;;;;;;;;18.40;99.90;;;;;;4999173;28;19936;-70
2021/04/26 06:42:06;;;;;;;;;;;18.40;99.90;;;;;;5016732;28;19987;-70
2021/04/26 06:44:32;;;;;;;;;;;18.30;99.90;;;;;;5016730;28;19955;-71
2021/04/26 06:46:59;;;;;;;;;;;18.20;99.90;;;;;;5016494;28;19913;-70
2021/04/26 06:49:26;;;;;;;;;;;18.20;99.90;;;;;;5016751;28;19916;-70
2021/04/26 06:51:53;;;;;;;;;;;18.20;99.90;;;;;;5016814;28;19925;-71
2021/04/26 06:54:20;;;;;;;;;;;18.20;99.90;;;;;;5016264;28;20316;-71
2021/04/26 06:56:46;;;;;;;;;;;18.20;99.90;;;;;;5016115;28;19909;-71
2021/04/26 06:59:13;;;;;;;;;;;18.10;99.90;;;;;;5016302;28;20336;-71
2021/04/26 07:01:40;;;;;;;;;;;18.00;99.90;;;;;;5016225;28;19909;-71
2021/04/26 07:04:08;;;;;;;;;;;18.00;99.90;;;;;;5016230;28;19932;-70
2021/04/26 07:06:36;;;;;;;;;;;18.00;99.90;;;;;;5016403;28;19909;-74
2021/04/26 07:09:03;;;;;;;;;;;17.90;99.90;;;;;;4998728;28;19921;-71
2021/04/26 07:11:30;;;;;;;;;;;17.90;99.90;;;;;;5016322;28;19960;-72
2021/04/26 07:13:56;;;;;;;;;;;17.90;99.90;;;;;;5015906;28;20272;-71
2021/04/26 07:16:23;;;;;;;;;;;17.90;99.90;;;;;;5016160;28;20248;-71
2021/04/26 07:18:50;;;;;;;;;;;17.80;99.90;;;;;;5008280;28;19910;-71
2021/04/26 07:21:16;;;;;;;;;;;17.80;99.90;;;;;;4996184;28;19989;-69
2021/04/26 07:23:43;;;;;;;;;;;17.70;99.90;;;;;;4996232;28;20229;-70
2021/04/26 07:26:10;;;;;;;;;;;17.80;99.90;;;;;;4996289;28;20393;-68
2021/04/26 07:28:39;;;;;;;;;;;17.70;99.90;;;;;;4996162;28;20016;-70
2021/04/26 07:31:06;;;;;;;;;;;17.70;99.90;;;;;;4995401;28;20023;-70
2021/04/26 07:33:33;;;;;;;;;;;17.60;99.90;;;;;;4995528;28;19914;-71
2021/04/26 07:35:59;;;;;;;;;;;17.60;99.90;;;;;;4996103;28;19944;-71
2021/04/26 07:38:27;;;;;;;;;;;17.60;99.90;;;;;;4995972;28;19910;-71
2021/04/26 07:40:54;;;;;;;;;;;17.60;99.90;;;;;;4993235;28;20351;-69
2021/04/26 07:43:21;;;;;;;;;;;17.50;99.90;;;;;;4993797;28;20005;-71
2021/04/26 07:45:47;;;;;;;;;;;17.50;99.90;;;;;;4993314;28;20356;-70
2021/04/26 07:48:14;;;;;;;;;;;17.50;99.90;;;;;;4992895;28;19914;-71
2021/04/26 07:50:41;;;;;;;;;;;17.50;99.90;;;;;;4993749;28;19917;-71
2021/04/26 07:53:08;;;;;;;;;;;17.50;99.90;;;;;;4993291;28;20336;-71
2021/04/26 07:55:35;;;;;;;;;;;17.40;99.90;;;;;;4993828;28;19975;-70
2021/04/26 07:58:02;;;;;;;;;;;17.50;99.90;;;;;;4993950;28;19936;-72
2021/04/26 08:00:30;;;;;;;;;;;17.50;99.90;;;;;;4993752;28;20012;-71
2021/04/26 08:02:57;;;;;;;;;;;17.50;99.90;;;;;;4994571;28;20001;-71
2021/04/26 08:05:23;;;;;;;;;;;17.50;99.90;;;;;;4994657;28;20357;-70
2021/04/26 08:07:50;;;;;;;;;;;17.50;99.90;;;;;;4993312;28;19921;-73
2021/04/26 08:10:17;;;;;;;;;;;17.50;99.90;;;;;;4993344;28;19910;-71
2021/04/26 08:12:44;;;;;;;;;;;17.50;99.90;;;;;;4992897;28;19925;-71
2021/04/26 08:15:11;;;;;;;;;;;17.50;99.90;;;;;;4993083;28;19913;-69
2021/04/26 08:17:38;;;;;;;;;;;17.50;99.90;;;;;;4993162;28;19917;-70
2021/04/26 08:20:05;;;;;;;;;;;17.40;99.90;;;;;;4992741;28;19945;-72
2021/04/26 08:22:32;;;;;;;;;;;17.40;99.90;;;;;;4993155;28;19921;-72
2021/04/26 08:24:59;;;;;;;;;;;17.40;99.90;;;;;;4991690;28;20479;-71
2021/04/26 08:27:26;;;;;;;;;;;17.40;99.90;;;;;;4993002;28;19909;-71
2021/04/26 08:29:52;;;;;;;;;;;17.30;99.90;;;;;;4993155;28;19937;-71
2021/04/26 08:32:19;;;;;;;;;;;17.30;99.90;;;;;;4992469;28;19918;-71
2021/04/26 08:34:46;;;;;;;;;;;17.30;99.90;;;;;;4992892;28;19933;-71
2021/04/26 08:37:12;;;;;;;;;;;17.30;99.90;;;;;;4992907;28;19909;-71
2021/04/26 08:39:39;;;;;;;;;;;17.20;99.90;;;;;;4992689;28;19914;-70
2021/04/26 08:42:06;;;;;;;;;;;17.30;99.90;;;;;;4992818;28;19928;-70
2021/04/26 08:44:33;;;;;;;;;;;17.20;99.90;;;;;;4991879;28;19948;-71
2021/04/26 08:47:00;;;;;;;;;;;17.20;99.90;;;;;;4991933;28;20439;-71
2021/04/26 08:49:26;;;;;;;;;;;17.10;99.90;;;;;;4992522;28;20237;-70
2021/04/26 08:51:53;;;;;;;;;;;17.10;99.90;;;;;;4992448;28;20012;-69
2021/04/26 08:54:20;;;;;;;;;;;17.10;99.90;;;;;;4992453;28;19910;-70
2021/04/26 08:56:47;;;;;;;;;;;17.00;99.90;;;;;;4992007;28;19910;-71
2021/04/26 08:59:14;;;;;;;;;;;17.00;99.90;;;;;;4992182;28;19910;-71
2021/04/26 09:01:45;;;;;;;;;;;17.00;99.90;;;;;;4992129;28;20273;-71
2021/04/26 09:04:13;;;;;;;;;;;17.00;99.90;;;;;;4992347;28;20517;-70
2021/04/26 09:07:09;;;;;;;;;;;17.10;99.90;;;;;;4993088;28;20379;-71
2021/04/26 09:09:39;;;;;;;;;;;17.10;99.90;;;;;;4981565;28;19953;-72
2021/04/26 09:12:07;;;;;;;;;;;17.00;99.90;;;;;;4994402;28;19925;-71
2021/04/26 09:14:43;;;;;;;;;;;17.00;99.90;;;;;;4994182;28;19910;-70
2021/04/26 09:17:28;;;;;;;;;;;17.00;99.90;;;;;;4993987;28;20535;-71
2021/04/26 09:19:56;;;;;;;;;;;16.90;99.90;;;;;;4994014;28;20000;-71
2021/04/26 09:22:40;;;;;;;;;;;16.90;99.90;;;;;;4992699;28;19956;-70
2021/04/26 09:25:22;;;;;;;;;;;16.90;99.90;;;;;;4993508;28;19917;-71
2021/04/26 09:27:54;;;;;;;;;;;16.90;99.90;;;;;;4993917;28;19910;-71
2021/04/26 09:30:43;;;;;;;;;;;16.90;99.90;;;;;;4993418;28;19922;-71
2021/04/26 09:33:32;;;;;;;;;;;16.90;99.90;;;;;;4994104;28;20276;-72
2021/04/26 09:36:31;;;;;;;;;;;16.90;99.90;;;;;;4992701;28;19910;-72
2021/04/26 09:39:04;;;;;;;;;;;16.90;99.90;;;;;;4991589;28;19910;-71
2021/04/26 09:41:32;;;;;;;;;;;16.90;99.90;;;;;;4991853;28;19930;-71
2021/04/26 09:44:02;;;;;;;;;;;16.90;99.90;;;;;;4991725;28;19957;-72
2021/04/26 09:46:42;;;;;;;;;;;16.80;99.90;;;;;;4992712;28;20361;-71
2021/04/26 09:49:13;;;;;;;;;;;16.80;99.90;;;;;;4993739;28;19913;-71
2021/04/26 09:52:15;;;;;;;;;;;16.80;99.90;;;;;;4993656;28;19921;-70
2021/04/26 09:54:43;;;;;;;;;;;16.80;99.90;;;;;;4993715;28;19910;-72
2021/04/26 09:57:10;;;;;;;;;;;16.70;99.90;;;;;;4999254;28;19972;-71
2021/04/26 09:59:36;;;;;;;;;;;16.70;99.90;;;;;;5000144;28;19925;-71
2021/04/26 10:02:04;;;;;;;;;;;16.60;99.90;;;;;;5000038;28;19919;-70
2021/04/26 10:04:31;;;;;;;;;;;16.60;99.90;;;;;;5000007;28;20000;-70
2021/04/26 10:06:58;;;;;;;;;;;16.50;99.90;;;;;;4999858;28;19910;-70
2021/04/26 10:09:25;;;;;;;;;;;16.50;99.90;;;;;;5000037;28;19914;-69
2021/04/26 10:11:53;;;;;;;;;;;16.50;99.90;;;;;;5000049;28;19972;-71
2021/04/26 10:14:19;;;;;;;;;;;16.50;99.90;;;;;;4999956;28;20272;-71
2021/04/26 10:16:58;;;;;;;;;;;16.40;99.90;;;;;;4999774;28;19916;-70
2021/04/26 10:19:31;;;;;;;;;;;16.40;99.90;;;;;;4999880;28;19913;-71
2021/04/26 10:21:59;;;;;;;;;;;16.40;99.90;;;;;;4999975;28;19910;-71
2021/04/26 10:24:27;;;;;;;;;;;16.40;99.90;;;;;;4999902;28;19910;-71
2021/04/26 10:27:01;;;;;;;;;;;16.40;99.90;;;;;;4999699;28;19913;-70
2021/04/26 10:29:30;;;;;;;;;;;16.30;99.90;;;;;;5000678;28;20020;-72
2021/04/26 10:31:59;;;;;;;;;;;16.30;99.90;;;;;;4998399;28;19918;-70
2021/04/26 10:34:48;;;;;;;;;;;16.40;99.90;;;;;;4999686;28;19993;-71
2021/04/26 10:37:15;;;;;;;;;;;16.30;99.90;;;;;;4990027;28;19949;-71
2021/04/26 10:40:02;;;;;;;;;;;16.30;99.90;;;;;;4997550;28;20354;-69
2021/04/26 10:42:34;;;;;;;;;;;16.30;99.90;;;;;;4997365;28;19918;-71
2021/04/26 10:45:02;;;;;;;;;;;16.30;99.90;;;;;;4996602;28;19917;-71
2021/04/26 10:47:31;;;;;;;;;;;16.30;99.90;;;;;;4997556;28;19917;-69
2021/04/26 10:50:00;;;;;;;;;;;16.30;99.90;;;;;;4997349;28;19968;-70
2021/04/26 10:52:27;;;;;;;;;;;16.30;99.90;;;;;;4997451;28;19968;-70
2021/04/26 10:54:55;;;;;;;;;;;16.30;99.90;;;;;;4997502;28;19914;-71
2021/04/26 10:57:41;;;;;;;;;;;16.30;99.90;;;;;;4998073;28;19921;-69
2021/04/26 11:00:25;;;;;;;;;;;16.30;99.90;;;;;;4998159;28;19949;-70
2021/04/26 11:03:20;;;;;;;;;;;16.30;99.90;;;;;;4998659;28;19921;-70
2021/04/26 11:05:51;;;;;;;;;;;16.20;99.90;;;;;;4997536;28;19913;-69
2021/04/26 11:08:37;;;;;;;;;;;16.20;99.90;;;;;;4994589;28;20352;-70
2021/04/26 11:11:27;;;;;;;;;;;16.20;99.90;;;;;;4994288;28;19914;-70
2021/04/26 11:13:54;;;;;;;;;;;16.20;99.90;;;;;;4994065;28;19914;-71
2021/04/26 11:16:21;;;;;;;;;;;16.20;99.90;;;;;;4993850;28;19910;-71
2021/04/26 11:19:03;;;;;;;;;;;16.10;99.90;;;;;;4994113;28;19926;-69
2021/04/26 11:21:47;;;;;;;;;;;16.10;99.90;;;;;;4994550;28;20287;-71
2021/04/26 11:24:25;;;;;;;;;;;16.10;99.90;;;;;;4994213;28;19928;-71
2021/04/26 11:27:11;;;;;;;;;;;16.00;99.90;;;;;;4993893;28;19996;-70
2021/04/26 11:29:50;;;;;;;;;;;16.00;99.90;;;;;;4993513;28;19914;-70
2021/04/26 11:32:37;;;;;;;;;;;16.00;99.90;;;;;;4994096;28;19922;-70
2021/04/26 11:35:05;;;;;;;;;;;16.00;99.90;;;;;;4993296;28;20745;-70
2021/04/26 11:37:36;;;;;;;;;;;16.00;99.90;;;;;;4994319;28;20072;-69
2021/04/26 11:40:13;;;;;;;;;;;16.00;99.90;;;;;;4993421;28;19920;-71
2021/04/26 11:42:40;;;;;;;;;;;16.00;99.90;;;;;;4993860;28;19917;-70
2021/04/26 11:45:08;;;;;;;;;;;16.00;99.90;;;;;;4993180;28;19921;-71
2021/04/26 11:47:34;;;;;;;;;;;16.00;99.90;;;;;;4993890;28;20001;-69
2021/04/26 11:50:02;;;;;;;;;;;16.00;99.90;;;;;;4992688;28;19921;-69
2021/04/26 11:52:29;;;;;;;;;;;16.00;99.90;;;;;;4993752;28;19921;-69
2021/04/26 11:55:05;;;;;;;;;;;16.10;99.90;;;;;;4993573;28;19914;-68
2021/04/26 11:57:31;;;;;;;;;;;16.00;99.90;;;;;;4993808;28;20008;-70
2021/04/26 12:00:00;;;;;;;;;;;16.10;99.90;;;;;;4991646;28;20356;-68
2021/04/26 12:02:27;;;;;;;;;;;16.10;99.90;;;;;;4993593;28;19964;-71
2021/04/26 12:04:54;;;;;;;;;;;16.10;99.90;;;;;;4993174;28;19910;-70
2021/04/26 12:07:21;;;;;;;;;;;16.10;99.90;;;;;;4992994;28;20289;-70
2021/04/26 12:09:55;;;;;;;;;;;16.10;99.90;;;;;;4993537;28;19917;-69
2021/04/26 12:12:22;;;;;;;;;;;16.10;99.90;;;;;;4993307;28;19918;-71
2021/04/26 12:14:53;;;;;;;;;;;16.10;99.90;;;;;;4992444;28;19910;-70
2021/04/26 12:17:25;;;;;;;;;;;16.10;99.90;;;;;;4993372;28;19957;-71
2021/04/26 12:19:52;;;;;;;;;;;16.10;99.90;;;;;;4992902;28;19910;-70
2021/04/26 12:22:22;;;;;;;;;;;16.20;99.90;;;;;;4992024;28;19910;-69
2021/04/26 12:24:49;;;;;;;;;;;16.10;99.90;;;;;;4996527;28;19910;-71
2021/04/26 12:27:16;;;;;;;;;;;16.10;99.90;;;;;;4998854;28;19960;-69
2021/04/26 12:29:46;;;;;;;;;;;16.10;99.90;;;;;;5001372;28;20021;-72
2021/04/26 12:32:18;;;;;;;;;;;16.10;99.90;;;;;;4993048;28;19918;-70
2021/04/26 12:34:56;;;;;;;;;;;16.10;99.90;;;;;;4992728;28;19918;-70
2021/04/26 12:37:24;;;;;;;;;;;16.10;99.90;;;;;;4992933;28;19910;-70
2021/04/26 12:39:53;;;;;;;;;;;16.10;99.90;;;;;;4992649;28;20273;-71
2021/04/26 12:42:21;;;;;;;;;;;16.10;99.90;;;;;;4992666;28;19924;-71
2021/04/26 12:44:51;;;;;;;;;;;16.20;99.90;;;;;;4992032;28;20005;-71
2021/04/26 12:47:21;;;;;;;;;;;16.20;99.90;;;;;;4992387;28;19913;-69
2021/04/26 12:49:49;;;;;;;;;;;16.20;99.90;;;;;;4992889;28;19916;-71
2021/04/26 12:52:17;;;;;;;;;;;16.20;99.90;;;;;;4992428;28;19921;-72
2021/04/26 12:55:01;;;;;;;;;;;16.20;99.90;;;;;;4988691;28;19994;-69
2021/04/26 12:57:28;;;;;;;;;;;16.20;99.90;;;;;;4991153;28;19914;-69
2021/04/26 12:59:54;;;;;;;;;;;16.20;99.90;;;;;;4992046;28;20328;-71
2021/04/26 13:02:22;;;;;;;;;;;16.20;99.90;;;;;;4992483;28;20265;-71
2021/04/26 13:04:51;;;;;;;;;;;16.10;99.90;;;;;;4992210;28;19910;-72
2021/04/26 13:07:19;;;;;;;;;;;16.10;99.90;;;;;;4992423;28;19914;-70
2021/04/26 13:09:45;;;;;;;;;;;16.00;99.90;;;;;;4992171;28;19921;-70
2021/04/26 13:12:12;;;;;;;;;;;16.10;99.90;;;;;;4991975;28;20005;-69
2021/04/26 13:14:39;;;;;;;;;;;16.10;99.90;;;;;;4992261;28;20013;-70
2021/04/26 13:17:11;;;;;;;;;;;16.00;99.90;;;;;;4991949;28;20471;-69
2021/04/26 13:19:39;;;;;;;;;;;16.00;99.90;;;;;;4992210;28;19941;-71
2021/04/26 13:22:22;;;;;;;;;;;16.00;99.90;;;;;;4992400;28;19913;-71
2021/04/26 13:24:55;;;;;;;;;;;16.00;99.90;;;;;;4991531;28;19917;-72
2021/04/26 13:27:22;;;;;;;;;;;16.00;99.90;;;;;;4992069;28;19917;-71
2021/04/26 13:29:51;;;;;;;;;;;16.00;99.90;;;;;;4991984;28;19917;-71
2021/04/26 13:32:18;;;;;;;;;;;15.90;99.90;;;;;;4991822;28;19922;-71
2021/04/26 13:34:47;;;;;;;;;;;15.90;99.90;;;;;;4991890;28;19945;-72
2021/04/26 13:37:15;;;;;;;;;;;15.90;99.90;;;;;;4991953;28;19917;-73
2021/04/26 13:39:42;;;;;;;;;;;15.90;99.90;;;;;;4991362;28;19929;-72
2021/04/26 13:42:09;;;;;;;;;;;15.90;99.90;;;;;;4991863;28;20297;-73
2021/04/26 13:44:35;;;;;;;;;;;15.90;99.90;;;;;;4991811;28;20361;-72
2021/04/26 13:47:02;;;;;;;;;;;15.80;99.90;;;;;;4991728;28;20045;-72
2021/04/26 13:49:29;;;;;;;;;;;15.80;99.90;;;;;;4991896;28;19910;-72
2021/04/26 13:51:56;;;;;;;;;;;15.70;99.90;;;;;;4991684;28;20352;-72
2021/04/26 13:54:23;;;;;;;;;;;15.70;99.90;;;;;;4998438;28;20311;-73
2021/04/26 13:56:50;;;;;;;;;;;15.70;99.90;;;;;;4998278;28;19945;-70
2021/04/26 13:59:16;;;;;;;;;;;15.70;99.90;;;;;;5002504;28;19914;-73
2021/04/26 14:01:43;;;;;;;;;;;15.60;99.90;;;;;;4992180;28;20273;-71
2021/04/26 14:04:09;;;;;;;;;;;15.60;99.90;;;;;;4991386;28;19957;-72
2021/04/26 14:06:36;;;;;;;;;;;15.60;99.90;;;;;;4991990;28;20385;-70
2021/04/26 14:09:07;;;;;;;;;;;15.60;99.90;;;;;;4991584;28;20262;-72
2021/04/26 14:11:34;;;;;;;;;;;15.60;99.90;;;;;;4991664;28;20392;-73
2021/04/26 14:14:04;;;;;;;;;;;15.50;99.90;;;;;;4991689;28;19913;-72
2021/04/26 14:16:30;;;;;;;;;;;15.50;99.90;;;;;;4991859;28;19932;-72
2021/04/26 14:18:57;;;;;;;;;;;15.50;99.90;;;;;;4991255;28;19952;-73
2021/04/26 14:21:24;;;;;;;;;;;15.50;99.90;;;;;;4991528;28;19917;-71
2021/04/26 14:23:51;;;;;;;;;;;15.50;99.90;;;;;;4991543;28;19910;-72
2021/04/26 14:26:18;;;;;;;;;;;15.50;99.90;;;;;;4991712;28;20008;-71
2021/04/26 14:28:45;;;;;;;;;;;15.50;99.90;;;;;;4991395;28;20379;-72